sensor_id;sensor_type;location;lat;lon;timestamp;pressure;altitude;pressure_sealevel;temperature;humidity
16331;BME280;8275;48.206;16.340;2024-02-23T00:02:08;97225.44;;;16.21;44.14
16331;BME280;8275;48.206;16.340;2024-02-23T00:04:36;97219.09;;;16.20;44.13
16331;BME280;8275;48.206;16.340;2024-02-23T00:07:05;97217.47;;;16.19;44.19
16331;BME280;8275;48.206;16.340;2024-02-23T00:09:33;97221.72;;;16.16;44.23
16331;BME280;8275;48.206;16.340;2024-02-23T00:12:02;97222.09;;;16.15;44.34
16331;BME280;8275;48.206;16.340;2024-02-23T00:14:33;97212.53;;;16.12;44.28
16331;BME280;8275;48.206;16.340;2024-02-23T00:17:03;97204.25;;;16.12;44.43
16331;BME280;8275;48.206;16.340;2024-02-23T00:19:32;97205.06;;;16.13;44.48
16331;BME280;8275;48.206;16.340;2024-02-23T00:22:00;97204.25;;;16.12;44.54
16331;BME280;8275;48.206;16.340;2024-02-23T00:24:32;97205.41;;;16.11;44.37
16331;BME280;8275;48.206;16.340;2024-02-23T00:27:00;97203.44;;;16.12;44.39
16331;BME280;8275;48.206;16.340;2024-02-23T00:29:29;97213.34;;;16.13;44.44
16331;BME280;8275;48.206;16.340;2024-02-23T00:31:59;97215.44;;;16.16;44.48
16331;BME280;8275;48.206;16.340;2024-02-23T00:34:27;97205.16;;;16.16;44.53
16331;BME280;8275;48.206;16.340;2024-02-23T00:36:57;97201.25;;;16.17;44.54
16331;BME280;8275;48.206;16.340;2024-02-23T00:39:26;97203.66;;;16.19;44.39
16331;BME280;8275;48.206;16.340;2024-02-23T00:41:54;97202.53;;;16.20;44.38
16331;BME280;8275;48.206;16.340;2024-02-23T00:44:22;97201.38;;;16.21;44.52
16331;BME280;8275;48.206;16.340;2024-02-23T00:46:51;97204.13;;;16.21;44.47
16331;BME280;8275;48.206;16.340;2024-02-23T00:49:20;97205.75;;;16.22;44.13
16331;BME280;8275;48.206;16.340;2024-02-23T00:51:48;97195.53;;;16.23;44.32
16331;BME280;8275;48.206;16.340;2024-02-23T00:54:16;97201.03;;;16.23;44.27
16331;BME280;8275;48.206;16.340;2024-02-23T00:56:45;97202.63;;;16.24;44.24
16331;BME280;8275;48.206;16.340;2024-02-23T00:59:18;97211.75;;;16.24;44.39
16331;BME280;8275;48.206;16.340;2024-02-23T01:01:48;97215.31;;;16.25;44.36
16331;BME280;8275;48.206;16.340;2024-02-23T01:04:17;97220.38;;;16.23;44.35
16331;BME280;8275;48.206;16.340;2024-02-23T01:06:46;97227.41;;;16.20;44.62
16331;BME280;8275;48.206;16.340;2024-02-23T01:09:15;97223.22;;;16.14;44.64
16331;BME280;8275;48.206;16.340;2024-02-23T01:11:47;97216.31;;;16.08;44.71
16331;BME280;8275;48.206;16.340;2024-02-23T01:14:16;97212.28;;;16.05;44.72
16331;BME280;8275;48.206;16.340;2024-02-23T01:16:45;97197.19;;;16.03;44.80
16331;BME280;8275;48.206;16.340;2024-02-23T01:19:13;97192.03;;;16.01;44.71
16331;BME280;8275;48.206;16.340;2024-02-23T01:21:43;97199.50;;;16.01;44.66
16331;BME280;8275;48.206;16.340;2024-02-23T01:24:13;97204.19;;;16.00;44.70
16331;BME280;8275;48.206;16.340;2024-02-23T01:26:41;97201.78;;;15.99;44.59
16331;BME280;8275;48.206;16.340;2024-02-23T01:29:10;97211.22;;;15.98;44.76
16331;BME280;8275;48.206;16.340;2024-02-23T01:31:38;97209.63;;;15.97;44.96
16331;BME280;8275;48.206;16.340;2024-02-23T01:34:07;97213.03;;;15.94;44.64
16331;BME280;8275;48.206;16.340;2024-02-23T01:36:35;97226.03;;;15.93;44.96
16331;BME280;8275;48.206;16.340;2024-02-23T01:39:04;97218.09;;;15.92;44.78
16331;BME280;8275;48.206;16.340;2024-02-23T01:41:33;97208.53;;;15.89;44.84
16331;BME280;8275;48.206;16.340;2024-02-23T01:44:03;97204.97;;;15.89;44.70
16331;BME280;8275;48.206;16.340;2024-02-23T01:46:31;97202.56;;;15.87;44.67
16331;BME280;8275;48.206;16.340;2024-02-23T01:49:01;97210.03;;;15.87;44.96
16331;BME280;8275;48.206;16.340;2024-02-23T01:51:30;97201.28;;;15.85;44.90
16331;BME280;8275;48.206;16.340;2024-02-23T01:53:59;97200.47;;;15.84;44.97
16331;BME280;8275;48.206;16.340;2024-02-23T01:56:27;97194.16;;;15.84;44.96
16331;BME280;8275;48.206;16.340;2024-02-23T01:58:57;97195.31;;;15.83;44.79
16331;BME280;8275;48.206;16.340;2024-02-23T02:01:27;97195.66;;;15.81;44.94
16331;BME280;8275;48.206;16.340;2024-02-23T02:03:56;97194.50;;;15.82;44.84
16331;BME280;8275;48.206;16.340;2024-02-23T02:06:25;97190.13;;;15.81;45.19
16331;BME280;8275;48.206;16.340;2024-02-23T02:08:54;97195.66;;;15.81;45.05
16331;BME280;8275;48.206;16.340;2024-02-23T02:11:22;97188.16;;;15.82;45.04
16331;BME280;8275;48.206;16.340;2024-02-23T02:13:51;97187.38;;;15.81;44.93
16331;BME280;8275;48.206;16.340;2024-02-23T02:16:19;97185.38;;;15.82;45.17
16331;BME280;8275;48.206;16.340;2024-02-23T02:18:48;97196.94;;;15.84;45.10
16331;BME280;8275;48.206;16.340;2024-02-23T02:21:16;97199.34;;;15.85;45.00
16331;BME280;8275;48.206;16.340;2024-02-23T02:23:46;97198.53;;;15.85;44.86
16331;BME280;8275;48.206;16.340;2024-02-23T02:26:15;97198.66;;;15.88;45.06
16331;BME280;8275;48.206;16.340;2024-02-23T02:28:43;97202.22;;;15.89;45.07
16331;BME280;8275;48.206;16.340;2024-02-23T02:31:12;97206.94;;;15.88;44.86
16331;BME280;8275;48.206;16.340;2024-02-23T02:33:42;97212.13;;;15.90;45.02
16331;BME280;8275;48.206;16.340;2024-02-23T02:36:10;97214.88;;;15.90;44.93
16331;BME280;8275;48.206;16.340;2024-02-23T02:38:39;97225.56;;;15.91;44.89
16331;BME280;8275;48.206;16.340;2024-02-23T02:41:08;97234.22;;;15.90;45.04
16331;BME280;8275;48.206;16.340;2024-02-23T02:43:37;97240.09;;;15.88;45.06
16331;BME280;8275;48.206;16.340;2024-02-23T02:46:05;97246.38;;;15.89;45.09
16331;BME280;8275;48.206;16.340;2024-02-23T02:48:34;97258.44;;;15.84;44.88
16331;BME280;8275;48.206;16.340;2024-02-23T02:51:04;97259.00;;;15.78;45.11
16331;BME280;8275;48.206;16.340;2024-02-23T02:53:32;97254.50;;;15.73;45.11
16331;BME280;8275;48.206;16.340;2024-02-23T02:56:01;97269.66;;;15.67;45.17
16331;BME280;8275;48.206;16.340;2024-02-23T02:58:33;97265.16;;;15.63;45.19
16331;BME280;8275;48.206;16.340;2024-02-23T03:01:02;97268.59;;;15.60;45.30
16331;BME280;8275;48.206;16.340;2024-02-23T03:03:30;97268.13;;;15.58;45.49
16331;BME280;8275;48.206;16.340;2024-02-23T03:05:59;97268.13;;;15.58;45.49
16331;BME280;8275;48.206;16.340;2024-02-23T03:08:29;97259.50;;;15.59;45.64
16331;BME280;8275;48.206;16.340;2024-02-23T03:10:57;97263.06;;;15.60;45.68
16331;BME280;8275;48.206;16.340;2024-02-23T03:13:26;97271.00;;;15.61;45.67
16331;BME280;8275;48.206;16.340;2024-02-23T03:15:54;97265.47;;;15.61;45.75
16331;BME280;8275;48.206;16.340;2024-02-23T03:18:23;97267.44;;;15.61;45.88
16331;BME280;8275;48.206;16.340;2024-02-23T03:20:51;97276.06;;;15.59;46.12
16331;BME280;8275;48.206;16.340;2024-02-23T03:23:20;97274.09;;;15.60;46.26
16331;BME280;8275;48.206;16.340;2024-02-23T03:25:50;97284.31;;;15.59;46.40
16331;BME280;8275;48.206;16.340;2024-02-23T03:28:18;97295.72;;;15.58;46.61
16331;BME280;8275;48.206;16.340;2024-02-23T03:30:47;97291.69;;;15.55;46.84
16331;BME280;8275;48.206;16.340;2024-02-23T03:33:15;97306.13;;;15.52;46.77
16331;BME280;8275;48.206;16.340;2024-02-23T03:35:44;97312.66;;;15.48;46.76
16331;BME280;8275;48.206;16.340;2024-02-23T03:38:12;97342.69;;;15.40;46.84
16331;BME280;8275;48.206;16.340;2024-02-23T03:40:41;97341.63;;;15.33;46.97
16331;BME280;8275;48.206;16.340;2024-02-23T03:43:11;97352.03;;;15.27;47.24
16331;BME280;8275;48.206;16.340;2024-02-23T03:45:39;97368.13;;;15.25;47.53
16331;BME280;8275;48.206;16.340;2024-02-23T03:48:08;97366.84;;;15.23;47.90
16331;BME280;8275;48.206;16.340;2024-02-23T03:50:36;97370.25;;;15.20;48.16
16331;BME280;8275;48.206;16.340;2024-02-23T03:53:05;97377.22;;;15.17;48.18
16331;BME280;8275;48.206;16.340;2024-02-23T03:55:33;97388.13;;;15.14;48.35
16331;BME280;8275;48.206;16.340;2024-02-23T03:58:02;97386.03;;;15.11;48.48
16331;BME280;8275;48.206;16.340;2024-02-23T04:00:32;97393.00;;;15.08;48.71
16331;BME280;8275;48.206;16.340;2024-02-23T04:03:01;97421.25;;;15.05;49.18
16331;BME280;8275;48.206;16.340;2024-02-23T04:05:29;97463.16;;;14.99;49.72
16331;BME280;8275;48.206;16.340;2024-02-23T04:07:58;97459.25;;;14.91;49.75
16331;BME280;8275;48.206;16.340;2024-02-23T04:10:26;97471.91;;;14.84;50.18
16331;BME280;8275;48.206;16.340;2024-02-23T04:12:55;97462.03;;;14.74;50.80
16331;BME280;8275;48.206;16.340;2024-02-23T04:15:23;97465.94;;;14.64;50.91
16331;BME280;8275;48.206;16.340;2024-02-23T04:17:53;97452.66;;;14.58;51.26
16331;BME280;8275;48.206;16.340;2024-02-23T04:20:21;97468.41;;;14.49;51.77
16331;BME280;8275;48.206;16.340;2024-02-23T04:22:50;97465.31;;;14.42;51.95
16331;BME280;8275;48.206;16.340;2024-02-23T04:25:18;97470.19;;;14.36;52.48
16331;BME280;8275;48.206;16.340;2024-02-23T04:27:47;97475.03;;;14.31;52.63
16331;BME280;8275;48.206;16.340;2024-02-23T04:30:16;97465.59;;;14.23;53.01
16331;BME280;8275;48.206;16.340;2024-02-23T04:32:44;97475.66;;;14.19;53.31
16331;BME280;8275;48.206;16.340;2024-02-23T04:35:14;97470.31;;;14.14;53.40
16331;BME280;8275;48.206;16.340;2024-02-23T04:37:44;97472.09;;;14.10;53.85
16331;BME280;8275;48.206;16.340;2024-02-23T04:40:13;97465.28;;;14.07;54.02
16331;BME280;8275;48.206;16.340;2024-02-23T04:42:43;97472.22;;;14.05;54.27
16331;BME280;8275;48.206;16.340;2024-02-23T04:45:12;97476.44;;;14.02;54.48
16331;BME280;8275;48.206;16.340;2024-02-23T04:47:41;97489.41;;;14.02;54.65
16331;BME280;8275;48.206;16.340;2024-02-23T04:50:10;97482.28;;;14.01;54.84
16331;BME280;8275;48.206;16.340;2024-02-23T04:52:40;97492.81;;;13.99;54.92
16331;BME280;8275;48.206;16.340;2024-02-23T04:55:08;97484.84;;;13.97;55.07
16331;BME280;8275;48.206;16.340;2024-02-23T04:57:37;97494.25;;;13.96;55.27
16331;BME280;8275;48.206;16.340;2024-02-23T05:00:07;97484.38;;;13.95;55.63
16331;BME280;8275;48.206;16.340;2024-02-23T05:02:36;97491.84;;;13.95;55.56
16331;BME280;8275;48.206;16.340;2024-02-23T05:05:05;97490.19;;;13.94;55.90
16331;BME280;8275;48.206;16.340;2024-02-23T05:07:35;97486.81;;;13.97;55.80
16331;BME280;8275;48.206;16.340;2024-02-23T05:10:06;97459.59;;;13.95;55.82
16331;BME280;8275;48.206;16.340;2024-02-23T05:12:35;97495.06;;;13.97;55.93
16331;BME280;8275;48.206;16.340;2024-02-23T05:15:04;97498.63;;;13.97;56.34
16331;BME280;8275;48.206;16.340;2024-02-23T05:17:33;97506.38;;;13.95;56.19
16331;BME280;8275;48.206;16.340;2024-02-23T05:20:02;97513.84;;;13.95;56.08
16331;BME280;8275;48.206;16.340;2024-02-23T05:22:35;97511.88;;;13.95;56.10
16331;BME280;8275;48.206;16.340;2024-02-23T05:25:06;97533.91;;;13.95;56.18
16331;BME280;8275;48.206;16.340;2024-02-23T05:27:34;97521.31;;;13.94;55.86
16331;BME280;8275;48.206;16.340;2024-02-23T05:30:04;97531.50;;;13.94;55.81
16331;BME280;8275;48.206;16.340;2024-02-23T05:32:34;97538.63;;;13.95;55.90
16331;BME280;8275;48.206;16.340;2024-02-23T05:35:03;97537.00;;;13.94;55.84
16331;BME280;8275;48.206;16.340;2024-02-23T05:37:32;97545.25;;;13.94;55.78
16331;BME280;8275;48.206;16.340;2024-02-23T05:40:00;97564.03;;;13.92;55.72
16331;BME280;8275;48.206;16.340;2024-02-23T05:42:33;97562.09;;;13.92;55.63
16331;BME280;8275;48.206;16.340;2024-02-23T05:45:07;97564.03;;;13.92;55.59
16331;BME280;8275;48.206;16.340;2024-02-23T05:47:37;97564.03;;;13.92;55.47
16331;BME280;8275;48.206;16.340;2024-02-23T05:50:09;97574.22;;;13.91;55.38
16331;BME280;8275;48.206;16.340;2024-02-23T05:52:38;97583.31;;;13.92;55.30
16331;BME280;8275;48.206;16.340;2024-02-23T05:55:08;97578.91;;;13.91;55.11
16331;BME280;8275;48.206;16.340;2024-02-23T05:57:38;97574.56;;;13.90;55.11
16331;BME280;8275;48.206;16.340;2024-02-23T06:00:07;97573.41;;;13.91;55.06
16331;BME280;8275;48.206;16.340;2024-02-23T06:02:38;97581.38;;;13.92;54.82
16331;BME280;8275;48.206;16.340;2024-02-23T06:05:08;97590.41;;;13.93;54.41
16331;BME280;8275;48.206;16.340;2024-02-23T06:07:36;97593.69;;;13.95;54.35
16331;BME280;8275;48.206;16.340;2024-02-23T06:10:07;97601.63;;;13.96;54.02
16331;BME280;8275;48.206;16.340;2024-02-23T06:12:35;97615.88;;;13.98;53.97
16331;BME280;8275;48.206;16.340;2024-02-23T06:15:09;97610.03;;;14.00;53.95
16331;BME280;8275;48.206;16.340;2024-02-23T06:17:38;97618.16;;;14.05;53.56
16331;BME280;8275;48.206;16.340;2024-02-23T06:20:09;97607.63;;;14.07;53.27
16331;BME280;8275;48.206;16.340;2024-02-23T06:22:38;97616.09;;;14.11;53.16
16331;BME280;8275;48.206;16.340;2024-02-23T06:25:07;97619.81;;;14.15;53.09
16331;BME280;8275;48.206;16.340;2024-02-23T06:27:36;97617.56;;;14.17;52.76
16331;BME280;8275;48.206;16.340;2024-02-23T06:30:08;97616.09;;;14.19;52.62
16331;BME280;8275;48.206;16.340;2024-02-23T06:32:38;97621.81;;;14.23;52.49
16331;BME280;8275;48.206;16.340;2024-02-23T06:35:07;97633.78;;;14.27;52.20
16331;BME280;8275;48.206;16.340;2024-02-23T06:37:39;97627.66;;;14.30;51.84
16331;BME280;8275;48.206;16.340;2024-02-23T06:40:09;97638.38;;;14.31;51.75
16331;BME280;8275;48.206;16.340;2024-02-23T06:42:37;97628.97;;;14.32;51.57
16331;BME280;8275;48.206;16.340;2024-02-23T06:45:08;97635.63;;;14.31;51.34
16331;BME280;8275;48.206;16.340;2024-02-23T06:47:37;97631.09;;;14.35;51.08
16331;BME280;8275;48.206;16.340;2024-02-23T06:50:07;97639.84;;;14.37;50.94
16331;BME280;8275;48.206;16.340;2024-02-23T06:52:36;97631.28;;;14.39;51.07
16331;BME280;8275;48.206;16.340;2024-02-23T06:55:06;97642.44;;;14.42;50.90
16331;BME280;8275;48.206;16.340;2024-02-23T06:57:36;97641.81;;;14.45;50.90
16331;BME280;8275;48.206;16.340;2024-02-23T07:00:09;97643.91;;;14.48;51.09
16331;BME280;8275;48.206;16.340;2024-02-23T07:02:38;97641.81;;;14.54;51.12
16331;BME280;8275;48.206;16.340;2024-02-23T07:05:08;97650.75;;;14.59;51.03
16331;BME280;8275;48.206;16.340;2024-02-23T07:07:36;97657.75;;;14.65;51.02
16331;BME280;8275;48.206;16.340;2024-02-23T07:10:08;97657.25;;;14.72;50.91
16331;BME280;8275;48.206;16.340;2024-02-23T07:12:37;97664.75;;;14.80;50.91
16331;BME280;8275;48.206;16.340;2024-02-23T07:15:09;97672.84;;;14.85;50.81
16331;BME280;8275;48.206;16.340;2024-02-23T07:17:38;97677.56;;;14.93;50.72
16331;BME280;8275;48.206;16.340;2024-02-23T07:20:08;97676.94;;;14.96;50.52
16331;BME280;8275;48.206;16.340;2024-02-23T07:22:37;97677.88;;;15.00;50.31
16331;BME280;8275;48.206;16.340;2024-02-23T07:25:06;97680.81;;;15.04;50.17
16331;BME280;8275;48.206;16.340;2024-02-23T07:27:35;97685.03;;;15.10;50.21
16331;BME280;8275;48.206;16.340;2024-02-23T07:30:05;97695.75;;;15.11;49.96
16331;BME280;8275;48.206;16.340;2024-02-23T07:32:36;97703.53;;;15.18;49.82
16331;BME280;8275;48.206;16.340;2024-02-23T07:35:05;97710.34;;;15.20;49.82
16331;BME280;8275;48.206;16.340;2024-02-23T07:37:34;97714.75;;;15.21;49.56
16331;BME280;8275;48.206;16.340;2024-02-23T07:40:03;97724.63;;;15.22;49.24
16331;BME280;8275;48.206;16.340;2024-02-23T07:42:32;97730.13;;;15.22;49.42
16331;BME280;8275;48.206;16.340;2024-02-23T07:45:03;97742.81;;;15.23;48.97
16331;BME280;8275;48.206;16.340;2024-02-23T07:47:33;97748.00;;;15.25;48.95
16331;BME280;8275;48.206;16.340;2024-02-23T07:50:03;97748.00;;;15.25;48.88
16331;BME280;8275;48.206;16.340;2024-02-23T07:52:32;97745.88;;;15.22;48.61
16331;BME280;8275;48.206;16.340;2024-02-23T07:55:01;97742.63;;;15.20;48.64
16331;BME280;8275;48.206;16.340;2024-02-23T07:57:32;97742.47;;;15.16;48.25
16331;BME280;8275;48.206;16.340;2024-02-23T08:00:02;97760.00;;;15.12;48.50
16331;BME280;8275;48.206;16.340;2024-02-23T08:02:31;97767.44;;;15.11;48.63
16331;BME280;8275;48.206;16.340;2024-02-23T08:05:00;97766.63;;;15.11;48.47
16331;BME280;8275;48.206;16.340;2024-02-23T08:07:30;97768.75;;;15.14;48.65
16331;BME280;8275;48.206;16.340;2024-02-23T08:09:59;97775.56;;;15.16;48.59
16331;BME280;8275;48.206;16.340;2024-02-23T08:12:27;97762.28;;;15.18;48.58
16331;BME280;8275;48.206;16.340;2024-02-23T08:14:56;97772.19;;;15.19;48.74
16331;BME280;8275;48.206;16.340;2024-02-23T08:17:24;97788.06;;;15.22;48.65
16331;BME280;8275;48.206;16.340;2024-02-23T08:19:53;97790.53;;;15.24;48.59
16331;BME280;8275;48.206;16.340;2024-02-23T08:22:22;97795.22;;;15.23;48.79
16331;BME280;8275;48.206;16.340;2024-02-23T08:24:52;97775.44;;;15.21;48.63
16331;BME280;8275;48.206;16.340;2024-02-23T08:27:20;97775.91;;;15.23;48.64
16331;BME280;8275;48.206;16.340;2024-02-23T08:29:49;97789.84;;;15.27;48.81
16331;BME280;8275;48.206;16.340;2024-02-23T08:32:17;97797.16;;;15.31;48.92
16331;BME280;8275;48.206;16.340;2024-02-23T08:34:46;97792.31;;;15.37;48.83
16331;BME280;8275;48.206;16.340;2024-02-23T08:37:14;97798.00;;;15.40;48.81
16331;BME280;8275;48.206;16.340;2024-02-23T08:39:43;97802.06;;;15.43;48.63
16331;BME280;8275;48.206;16.340;2024-02-23T08:42:13;97811.03;;;15.49;48.84
16331;BME280;8275;48.206;16.340;2024-02-23T08:44:41;97819.94;;;15.54;48.87
16331;BME280;8275;48.206;16.340;2024-02-23T08:47:10;97816.41;;;15.62;48.65
16331;BME280;8275;48.206;16.340;2024-02-23T08:49:38;97817.53;;;15.70;48.64
16331;BME280;8275;48.206;16.340;2024-02-23T08:52:07;97804.38;;;15.75;48.48
16331;BME280;8275;48.206;16.340;2024-02-23T08:54:35;97811.03;;;15.83;48.18
16331;BME280;8275;48.206;16.340;2024-02-23T08:57:04;97824.00;;;15.91;48.25
16331;BME280;8275;48.206;16.340;2024-02-23T08:59:34;97829.84;;;15.98;48.45
16331;BME280;8275;48.206;16.340;2024-02-23T09:02:03;97819.13;;;16.05;48.52
16331;BME280;8275;48.206;16.340;2024-02-23T09:04:32;97826.44;;;16.09;48.35
16331;BME280;8275;48.206;16.340;2024-02-23T09:07:01;97827.44;;;16.13;48.16
16331;BME280;8275;48.206;16.340;2024-02-23T09:09:29;97833.09;;;16.17;48.16
16331;BME280;8275;48.206;16.340;2024-02-23T09:11:58;97821.41;;;16.20;48.13
16331;BME280;8275;48.206;16.340;2024-02-23T09:14:27;97827.88;;;16.24;48.00
16331;BME280;8275;48.206;16.340;2024-02-23T09:16:58;97828.53;;;16.30;48.10
16331;BME280;8275;48.206;16.340;2024-02-23T09:19:27;97839.56;;;16.38;47.85
16331;BME280;8275;48.206;16.340;2024-02-23T09:21:55;97838.25;;;16.44;47.74
16331;BME280;8275;48.206;16.340;2024-02-23T09:24:24;97835.31;;;16.49;47.58
16331;BME280;8275;48.206;16.340;2024-02-23T09:26:53;97832.06;;;16.56;47.66
16331;BME280;8275;48.206;16.340;2024-02-23T09:29:21;97841.47;;;16.63;47.69
16331;BME280;8275;48.206;16.340;2024-02-23T09:31:50;97844.88;;;16.69;47.58
16331;BME280;8275;48.206;16.340;2024-02-23T09:34:21;97843.91;;;16.73;47.28
16331;BME280;8275;48.206;16.340;2024-02-23T09:36:50;97850.84;;;16.79;47.35
16331;BME280;8275;48.206;16.340;2024-02-23T09:39:19;97850.22;;;16.82;47.17
16331;BME280;8275;48.206;16.340;2024-02-23T09:41:50;97862.41;;;16.81;47.05
16331;BME280;8275;48.206;16.340;2024-02-23T09:44:19;97860.94;;;16.84;47.00
16331;BME280;8275;48.206;16.340;2024-02-23T09:46:50;97869.22;;;16.84;46.84
16331;BME280;8275;48.206;16.340;2024-02-23T09:49:18;97856.22;;;16.84;47.02
16331;BME280;8275;48.206;16.340;2024-02-23T09:51:49;97867.75;;;16.87;47.11
16331;BME280;8275;48.206;16.340;2024-02-23T09:54:18;97858.63;;;16.86;46.93
16331;BME280;8275;48.206;16.340;2024-02-23T09:56:46;97858.63;;;16.86;47.00
16331;BME280;8275;48.206;16.340;2024-02-23T09:59:15;97857.50;;;16.87;46.99
16331;BME280;8275;48.206;16.340;2024-02-23T10:01:45;97859.94;;;16.89;47.21
16331;BME280;8275;48.206;16.340;2024-02-23T10:04:14;97859.28;;;16.92;47.21
16331;BME280;8275;48.206;16.340;2024-02-23T10:06:43;97850.97;;;16.92;46.83
16331;BME280;8275;48.206;16.340;2024-02-23T10:09:14;97844.97;;;16.90;46.65
16331;BME280;8275;48.206;16.340;2024-02-23T10:11:42;97843.34;;;16.89;46.84
16331;BME280;8275;48.206;16.340;2024-02-23T10:14:11;97840.09;;;16.87;46.89
16331;BME280;8275;48.206;16.340;2024-02-23T10:16:40;97835.38;;;16.87;46.97
16331;BME280;8275;48.206;16.340;2024-02-23T10:19:09;97826.59;;;16.85;47.10
16331;BME280;8275;48.206;16.340;2024-02-23T10:21:37;97830.84;;;16.82;47.40
16331;BME280;8275;48.206;16.340;2024-02-23T10:24:06;97829.06;;;16.78;47.47
16331;BME280;8275;48.206;16.340;2024-02-23T10:26:37;97820.13;;;16.72;47.52
16331;BME280;8275;48.206;16.340;2024-02-23T10:29:06;97820.31;;;16.67;47.53
16331;BME280;8275;48.206;16.340;2024-02-23T10:31:38;97815.59;;;16.68;47.58
16331;BME280;8275;48.206;16.340;2024-02-23T10:34:09;97811.72;;;16.69;47.55
16331;BME280;8275;48.206;16.340;2024-02-23T10:36:41;97809.25;;;16.67;47.52
16331;BME280;8275;48.206;16.340;2024-02-23T10:39:17;97817.88;;;16.66;47.51
16331;BME280;8275;48.206;16.340;2024-02-23T10:41:58;97810.41;;;16.66;47.73
16331;BME280;8275;48.206;16.340;2024-02-23T10:44:29;97799.50;;;16.70;47.51
16331;BME280;8275;48.206;16.340;2024-02-23T10:46:58;97800.78;;;16.72;47.51
16331;BME280;8275;48.206;16.340;2024-02-23T10:49:28;97786.78;;;16.77;47.58
16331;BME280;8275;48.206;16.340;2024-02-23T10:51:57;97789.66;;;16.90;47.58
16331;BME280;8275;48.206;16.340;2024-02-23T10:54:27;97787.44;;;17.04;47.60
16331;BME280;8275;48.206;16.340;2024-02-23T10:56:57;97783.44;;;17.22;47.32
16331;BME280;8275;48.206;16.340;2024-02-23T10:59:27;97785.13;;;17.35;46.44
16331;BME280;8275;48.206;16.340;2024-02-23T11:01:57;97786.34;;;17.46;45.84
16331;BME280;8275;48.206;16.340;2024-02-23T11:04:28;97791.84;;;17.54;45.52
16331;BME280;8275;48.206;16.340;2024-02-23T11:06:58;97788.56;;;17.61;45.61
16331;BME280;8275;48.206;16.340;2024-02-23T11:09:32;97784.44;;;17.67;45.44
16331;BME280;8275;48.206;16.340;2024-02-23T11:12:04;97772.16;;;17.77;45.12
16331;BME280;8275;48.206;16.340;2024-02-23T11:14:36;97767.00;;;17.87;44.89
16331;BME280;8275;48.206;16.340;2024-02-23T11:17:06;97760.56;;;17.95;44.66
16331;BME280;8275;48.206;16.340;2024-02-23T11:19:35;97763.47;;;17.99;44.25
16331;BME280;8275;48.206;16.340;2024-02-23T11:22:05;97765.56;;;18.02;44.02
16331;BME280;8275;48.206;16.340;2024-02-23T11:24:49;97771.94;;;18.14;41.91
16331;BME280;8275;48.206;16.340;2024-02-23T11:27:29;97773.78;;;18.10;42.84
16331;BME280;8275;48.206;16.340;2024-02-23T11:30:03;97775.25;;;18.08;42.87
16331;BME280;8275;48.206;16.340;2024-02-23T11:32:38;97775.00;;;18.01;42.84
16331;BME280;8275;48.206;16.340;2024-02-23T11:35:11;97780.16;;;17.90;42.77
16331;BME280;8275;48.206;16.340;2024-02-23T11:37:47;97777.34;;;17.78;42.54
16331;BME280;8275;48.206;16.340;2024-02-23T11:40:18;97765.88;;;17.68;42.76
16331;BME280;8275;48.206;16.340;2024-02-23T11:42:48;97761.19;;;17.60;42.72
16331;BME280;8275;48.206;16.340;2024-02-23T11:45:16;97758.97;;;17.53;42.66
16331;BME280;8275;48.206;16.340;2024-02-23T11:47:46;97755.25;;;17.49;42.87
16331;BME280;8275;48.206;16.340;2024-02-23T11:50:15;97752.31;;;17.45;42.94
16331;BME280;8275;48.206;16.340;2024-02-23T11:52:44;97757.25;;;17.40;42.96
16331;BME280;8275;48.206;16.340;2024-02-23T11:55:12;97753.22;;;17.37;43.12
16331;BME280;8275;48.206;16.340;2024-02-23T11:57:47;97756.28;;;17.36;43.37
16331;BME280;8275;48.206;16.340;2024-02-23T12:00:18;97753.88;;;17.34;43.52
16331;BME280;8275;48.206;16.340;2024-02-23T12:02:47;97747.69;;;17.37;43.32
16331;BME280;8275;48.206;16.340;2024-02-23T12:05:17;97746.84;;;17.37;43.47
16331;BME280;8275;48.206;16.340;2024-02-23T12:07:46;97745.72;;;17.38;43.57
16331;BME280;8275;48.206;16.340;2024-02-23T12:10:15;97738.22;;;17.38;44.01
16331;BME280;8275;48.206;16.340;2024-02-23T12:12:43;97736.25;;;17.39;44.03
16331;BME280;8275;48.206;16.340;2024-02-23T12:15:13;97742.59;;;17.39;43.94
16331;BME280;8275;48.206;16.340;2024-02-23T12:17:47;97736.59;;;17.37;43.60
16331;BME280;8275;48.206;16.340;2024-02-23T12:20:16;97739.69;;;17.36;43.85
16331;BME280;8275;48.206;16.340;2024-02-23T12:22:46;97726.19;;;17.34;43.70
16331;BME280;8275;48.206;16.340;2024-02-23T12:25:15;97715.13;;;17.34;43.71
16331;BME280;8275;48.206;16.340;2024-02-23T12:27:43;97711.06;;;17.32;43.75
16331;BME280;8275;48.206;16.340;2024-02-23T12:30:15;97719.56;;;17.27;43.94
16331;BME280;8275;48.206;16.340;2024-02-23T12:32:45;97725.34;;;17.22;43.94
16331;BME280;8275;48.206;16.340;2024-02-23T12:35:15;97720.66;;;17.14;44.14
16331;BME280;8275;48.206;16.340;2024-02-23T12:37:44;97717.75;;;17.10;44.35
16331;BME280;8275;48.206;16.340;2024-02-23T12:40:13;97705.25;;;17.04;44.51
16331;BME280;8275;48.206;16.340;2024-02-23T12:42:41;97704.44;;;17.04;44.54
16331;BME280;8275;48.206;16.340;2024-02-23T12:45:11;97693.72;;;17.02;44.71
16331;BME280;8275;48.206;16.340;2024-02-23T12:47:41;97690.94;;;17.02;44.78
16331;BME280;8275;48.206;16.340;2024-02-23T12:50:10;97690.13;;;17.02;44.84
16331;BME280;8275;48.206;16.340;2024-02-23T12:52:39;97688.84;;;16.99;45.09
16331;BME280;8275;48.206;16.340;2024-02-23T12:55:08;97695.19;;;17.00;45.34
16331;BME280;8275;48.206;16.340;2024-02-23T12:57:37;97690.94;;;17.02;45.16
16331;BME280;8275;48.206;16.340;2024-02-23T13:00:07;97685.75;;;17.01;45.19
16331;BME280;8275;48.206;16.340;2024-02-23T13:02:36;97685.59;;;16.97;45.08
16331;BME280;8275;48.206;16.340;2024-02-23T13:05:07;97681.44;;;16.91;45.04
16331;BME280;8275;48.206;16.340;2024-02-23T13:07:36;97686.81;;;16.88;45.25
16331;BME280;8275;48.206;16.340;2024-02-23T13:10:07;97681.50;;;16.82;45.17
16331;BME280;8275;48.206;16.340;2024-02-23T13:12:36;97682.16;;;16.79;45.23